Terminal Aerodrome Forecast
Issued by NWS

Home | Current Version | Previous Version | Graphics & Text | Print | Product List | Glossary On
Versions: 1 2 3 4 5 6 7 8 9 10 11 12 13 14 15 16 17 18 19 20 21 22 23 24
000
FTUS43 KBIS 201100
TAFMOT
TAF
KMOT 201122Z 2012/2112 16006KT 1/4SM FZFG OVC001
      TEMPO 2016/2018 2SM BR OVC005
     FM201800 19007KT P6SM VCSH BKN060 OVC100
     FM210400 25005KT P6SM BKN100=

USA.gov is the U.S. government's official web portal to all federal, state and local government web resources and services.